sensor_id;sensor_type;location;lat;lon;timestamp;P1;durP1;ratioP1;P2;durP2;ratioP2
18290;SDS011;9271;48.590;8.866;2023-03-01T00:00:43;11.30;;;8.77;;
18290;SDS011;9271;48.590;8.866;2023-03-01T00:03:11;11.43;;;9.20;;
18290;SDS011;9271;48.590;8.866;2023-03-01T00:05:43;11.27;;;9.33;;
18290;SDS011;9271;48.590;8.866;2023-03-01T00:08:10;10.37;;;8.87;;
18290;SDS011;9271;48.590;8.866;2023-03-01T00:10:36;10.43;;;8.90;;
18290;SDS011;9271;48.590;8.866;2023-03-01T00:13:04;9.87;;;8.63;;
18290;SDS011;9271;48.590;8.866;2023-03-01T00:15:31;10.00;;;8.53;;
18290;SDS011;9271;48.590;8.866;2023-03-01T00:17:59;10.60;;;8.90;;
18290;SDS011;9271;48.590;8.866;2023-03-01T00:20:26;10.40;;;8.90;;
18290;SDS011;9271;48.590;8.866;2023-03-01T00:22:53;12.33;;;9.30;;
18290;SDS011;9271;48.590;8.866;2023-03-01T00:25:19;10.50;;;8.57;;
18290;SDS011;9271;48.590;8.866;2023-03-01T00:27:46;9.63;;;8.40;;
18290;SDS011;9271;48.590;8.866;2023-03-01T00:30:15;10.17;;;8.83;;
18290;SDS011;9271;48.590;8.866;2023-03-01T00:32:42;11.67;;;9.13;;
18290;SDS011;9271;48.590;8.866;2023-03-01T00:35:09;10.13;;;8.87;;
18290;SDS011;9271;48.590;8.866;2023-03-01T00:37:35;11.60;;;8.83;;
18290;SDS011;9271;48.590;8.866;2023-03-01T00:40:02;12.83;;;8.97;;
18290;SDS011;9271;48.590;8.866;2023-03-01T00:42:31;10.47;;;8.73;;
18290;SDS011;9271;48.590;8.866;2023-03-01T00:44:57;10.13;;;8.97;;
18290;SDS011;9271;48.590;8.866;2023-03-01T00:47:25;10.23;;;8.53;;
18290;SDS011;9271;48.590;8.866;2023-03-01T00:49:54;10.43;;;8.77;;
18290;SDS011;9271;48.590;8.866;2023-03-01T00:52:21;10.57;;;8.87;;
18290;SDS011;9271;48.590;8.866;2023-03-01T00:54:48;11.13;;;9.03;;
18290;SDS011;9271;48.590;8.866;2023-03-01T00:57:14;11.50;;;9.40;;
18290;SDS011;9271;48.590;8.866;2023-03-01T00:59:41;10.13;;;8.90;;
18290;SDS011;9271;48.590;8.866;2023-03-01T01:02:07;10.40;;;9.03;;
18290;SDS011;9271;48.590;8.866;2023-03-01T01:04:35;11.53;;;9.60;;
18290;SDS011;9271;48.590;8.866;2023-03-01T01:07:02;11.13;;;9.30;;
18290;SDS011;9271;48.590;8.866;2023-03-01T01:09:30;11.07;;;9.30;;
18290;SDS011;9271;48.590;8.866;2023-03-01T01:11:57;11.70;;;9.40;;
18290;SDS011;9271;48.590;8.866;2023-03-01T01:14:24;11.10;;;8.87;;
18290;SDS011;9271;48.590;8.866;2023-03-01T01:16:50;11.83;;;8.93;;
18290;SDS011;9271;48.590;8.866;2023-03-01T01:19:17;11.07;;;9.87;;
18290;SDS011;9271;48.590;8.866;2023-03-01T01:21:45;10.70;;;9.20;;
18290;SDS011;9271;48.590;8.866;2023-03-01T01:24:13;10.47;;;8.63;;
18290;SDS011;9271;48.590;8.866;2023-03-01T01:26:40;11.87;;;9.30;;
18290;SDS011;9271;48.590;8.866;2023-03-01T01:29:07;10.43;;;8.87;;
18290;SDS011;9271;48.590;8.866;2023-03-01T01:31:34;11.47;;;9.20;;
18290;SDS011;9271;48.590;8.866;2023-03-01T01:34:02;12.43;;;9.20;;
18290;SDS011;9271;48.590;8.866;2023-03-01T01:36:31;10.70;;;8.87;;
18290;SDS011;9271;48.590;8.866;2023-03-01T01:38:59;10.50;;;8.87;;
18290;SDS011;9271;48.590;8.866;2023-03-01T01:41:27;12.07;;;9.80;;
18290;SDS011;9271;48.590;8.866;2023-03-01T01:44:09;12.23;;;9.37;;
18290;SDS011;9271;48.590;8.866;2023-03-01T01:46:38;10.37;;;8.87;;
18290;SDS011;9271;48.590;8.866;2023-03-01T01:49:10;10.40;;;9.13;;
18290;SDS011;9271;48.590;8.866;2023-03-01T01:51:44;11.83;;;9.47;;
18290;SDS011;9271;48.590;8.866;2023-03-01T01:54:15;12.33;;;8.63;;
18290;SDS011;9271;48.590;8.866;2023-03-01T01:56:47;11.73;;;9.43;;
18290;SDS011;9271;48.590;8.866;2023-03-01T01:59:18;12.70;;;9.37;;
18290;SDS011;9271;48.590;8.866;2023-03-01T02:01:49;12.00;;;9.27;;
18290;SDS011;9271;48.590;8.866;2023-03-01T02:04:16;11.23;;;9.17;;
18290;SDS011;9271;48.590;8.866;2023-03-01T02:06:44;11.13;;;9.40;;
18290;SDS011;9271;48.590;8.866;2023-03-01T02:09:17;10.67;;;9.57;;
18290;SDS011;9271;48.590;8.866;2023-03-01T02:11:46;12.17;;;9.57;;
18290;SDS011;9271;48.590;8.866;2023-03-01T02:14:14;11.47;;;9.27;;
18290;SDS011;9271;48.590;8.866;2023-03-01T02:16:40;10.50;;;9.40;;
18290;SDS011;9271;48.590;8.866;2023-03-01T02:19:08;11.27;;;9.23;;
18290;SDS011;9271;48.590;8.866;2023-03-01T02:21:41;11.50;;;9.07;;
18290;SDS011;9271;48.590;8.866;2023-03-01T02:24:19;13.47;;;10.00;;
18290;SDS011;9271;48.590;8.866;2023-03-01T02:26:55;13.43;;;10.20;;
18290;SDS011;9271;48.590;8.866;2023-03-01T02:29:25;10.50;;;8.97;;
18290;SDS011;9271;48.590;8.866;2023-03-01T02:31:54;9.87;;;8.27;;
18290;SDS011;9271;48.590;8.866;2023-03-01T02:34:24;13.23;;;8.90;;
18290;SDS011;9271;48.590;8.866;2023-03-01T02:36:52;13.23;;;9.70;;
18290;SDS011;9271;48.590;8.866;2023-03-01T02:39:23;12.67;;;9.50;;
18290;SDS011;9271;48.590;8.866;2023-03-01T02:41:53;13.07;;;9.30;;
18290;SDS011;9271;48.590;8.866;2023-03-01T02:44:22;14.10;;;9.40;;
18290;SDS011;9271;48.590;8.866;2023-03-01T02:46:51;10.50;;;9.10;;
18290;SDS011;9271;48.590;8.866;2023-03-01T02:49:20;12.03;;;9.67;;
18290;SDS011;9271;48.590;8.866;2023-03-01T02:51:55;10.87;;;9.47;;
18290;SDS011;9271;48.590;8.866;2023-03-01T02:54:33;13.50;;;9.67;;
18290;SDS011;9271;48.590;8.866;2023-03-01T02:57:05;9.47;;;8.47;;
18290;SDS011;9271;48.590;8.866;2023-03-01T02:59:33;11.63;;;9.20;;
18290;SDS011;9271;48.590;8.866;2023-03-01T03:02:05;12.27;;;9.47;;
18290;SDS011;9271;48.590;8.866;2023-03-01T03:04:32;12.47;;;9.17;;
18290;SDS011;9271;48.590;8.866;2023-03-01T03:06:59;11.87;;;8.97;;
18290;SDS011;9271;48.590;8.866;2023-03-01T03:09:25;10.17;;;8.90;;
18290;SDS011;9271;48.590;8.866;2023-03-01T03:11:53;11.03;;;9.53;;
18290;SDS011;9271;48.590;8.866;2023-03-01T03:14:20;10.80;;;9.03;;
18290;SDS011;9271;48.590;8.866;2023-03-01T03:16:47;11.83;;;9.33;;
18290;SDS011;9271;48.590;8.866;2023-03-01T03:19:17;10.50;;;9.37;;
18290;SDS011;9271;48.590;8.866;2023-03-01T03:21:44;10.83;;;9.17;;
18290;SDS011;9271;48.590;8.866;2023-03-01T03:24:11;10.27;;;8.87;;
18290;SDS011;9271;48.590;8.866;2023-03-01T03:26:38;10.27;;;9.17;;
18290;SDS011;9271;48.590;8.866;2023-03-01T03:29:04;11.43;;;9.30;;
18290;SDS011;9271;48.590;8.866;2023-03-01T03:31:31;12.07;;;9.03;;
18290;SDS011;9271;48.590;8.866;2023-03-01T03:33:58;9.77;;;8.23;;
18290;SDS011;9271;48.590;8.866;2023-03-01T03:36:26;11.93;;;9.13;;
18290;SDS011;9271;48.590;8.866;2023-03-01T03:38:53;10.30;;;9.30;;
18290;SDS011;9271;48.590;8.866;2023-03-01T03:41:19;10.57;;;8.63;;
18290;SDS011;9271;48.590;8.866;2023-03-01T03:43:46;10.57;;;9.47;;
18290;SDS011;9271;48.590;8.866;2023-03-01T03:46:13;10.37;;;8.90;;
18290;SDS011;9271;48.590;8.866;2023-03-01T03:48:40;10.30;;;9.03;;
18290;SDS011;9271;48.590;8.866;2023-03-01T03:51:09;9.83;;;8.83;;
18290;SDS011;9271;48.590;8.866;2023-03-01T03:53:38;12.33;;;9.80;;
18290;SDS011;9271;48.590;8.866;2023-03-01T03:56:05;11.90;;;9.20;;
18290;SDS011;9271;48.590;8.866;2023-03-01T03:58:32;12.23;;;9.50;;
18290;SDS011;9271;48.590;8.866;2023-03-01T04:00:59;12.10;;;9.40;;
18290;SDS011;9271;48.590;8.866;2023-03-01T04:03:27;12.17;;;9.53;;
18290;SDS011;9271;48.590;8.866;2023-03-01T04:05:56;10.57;;;9.40;;
18290;SDS011;9271;48.590;8.866;2023-03-01T04:08:24;12.33;;;9.67;;
18290;SDS011;9271;48.590;8.866;2023-03-01T04:10:52;12.00;;;9.90;;
18290;SDS011;9271;48.590;8.866;2023-03-01T04:13:24;13.10;;;10.00;;
18290;SDS011;9271;48.590;8.866;2023-03-01T04:15:51;18.40;;;13.57;;
18290;SDS011;9271;48.590;8.866;2023-03-01T04:18:19;15.53;;;10.40;;
18290;SDS011;9271;48.590;8.866;2023-03-01T04:20:47;11.53;;;9.90;;
18290;SDS011;9271;48.590;8.866;2023-03-01T04:23:17;11.23;;;9.83;;
18290;SDS011;9271;48.590;8.866;2023-03-01T04:25:46;13.63;;;9.70;;
18290;SDS011;9271;48.590;8.866;2023-03-01T04:28:20;10.97;;;9.63;;
18290;SDS011;9271;48.590;8.866;2023-03-01T04:30:49;11.97;;;9.73;;
18290;SDS011;9271;48.590;8.866;2023-03-01T04:33:16;12.97;;;10.03;;
18290;SDS011;9271;48.590;8.866;2023-03-01T04:35:43;11.33;;;9.60;;
18290;SDS011;9271;48.590;8.866;2023-03-01T04:38:10;12.67;;;9.83;;
18290;SDS011;9271;48.590;8.866;2023-03-01T04:40:37;11.37;;;10.13;;
18290;SDS011;9271;48.590;8.866;2023-03-01T04:43:03;11.03;;;9.03;;
18290;SDS011;9271;48.590;8.866;2023-03-01T04:45:33;11.20;;;9.67;;
18290;SDS011;9271;48.590;8.866;2023-03-01T04:48:00;11.10;;;9.90;;
18290;SDS011;9271;48.590;8.866;2023-03-01T04:50:27;12.30;;;9.50;;
18290;SDS011;9271;48.590;8.866;2023-03-01T04:52:53;13.33;;;10.33;;
18290;SDS011;9271;48.590;8.866;2023-03-01T04:55:23;12.27;;;10.17;;
18290;SDS011;9271;48.590;8.866;2023-03-01T04:57:50;11.17;;;9.83;;
18290;SDS011;9271;48.590;8.866;2023-03-01T05:00:17;11.37;;;9.63;;
18290;SDS011;9271;48.590;8.866;2023-03-01T05:02:49;11.33;;;9.63;;
18290;SDS011;9271;48.590;8.866;2023-03-01T05:05:18;12.60;;;10.00;;
18290;SDS011;9271;48.590;8.866;2023-03-01T05:07:46;11.73;;;10.00;;
18290;SDS011;9271;48.590;8.866;2023-03-01T05:10:13;11.23;;;10.00;;
18290;SDS011;9271;48.590;8.866;2023-03-01T05:12:40;11.60;;;9.77;;
18290;SDS011;9271;48.590;8.866;2023-03-01T05:15:07;11.73;;;9.70;;
18290;SDS011;9271;48.590;8.866;2023-03-01T05:17:34;12.03;;;9.87;;
18290;SDS011;9271;48.590;8.866;2023-03-01T05:20:02;11.27;;;9.93;;
18290;SDS011;9271;48.590;8.866;2023-03-01T05:22:32;14.43;;;10.47;;
18290;SDS011;9271;48.590;8.866;2023-03-01T05:24:59;12.70;;;10.13;;
18290;SDS011;9271;48.590;8.866;2023-03-01T05:27:26;13.67;;;10.33;;
18290;SDS011;9271;48.590;8.866;2023-03-01T05:29:54;12.03;;;10.17;;
18290;SDS011;9271;48.590;8.866;2023-03-01T05:32:21;11.37;;;9.83;;
18290;SDS011;9271;48.590;8.866;2023-03-01T05:34:47;13.53;;;10.63;;
18290;SDS011;9271;48.590;8.866;2023-03-01T05:37:15;11.70;;;10.07;;
18290;SDS011;9271;48.590;8.866;2023-03-01T05:39:42;11.90;;;10.27;;
18290;SDS011;9271;48.590;8.866;2023-03-01T05:42:10;11.97;;;10.63;;
18290;SDS011;9271;48.590;8.866;2023-03-01T05:44:37;11.90;;;10.33;;
18290;SDS011;9271;48.590;8.866;2023-03-01T05:47:04;11.80;;;10.50;;
18290;SDS011;9271;48.590;8.866;2023-03-01T05:49:31;13.50;;;10.23;;
18290;SDS011;9271;48.590;8.866;2023-03-01T05:51:58;11.87;;;10.43;;
18290;SDS011;9271;48.590;8.866;2023-03-01T05:54:26;14.17;;;10.83;;
18290;SDS011;9271;48.590;8.866;2023-03-01T05:56:52;11.03;;;9.77;;
18290;SDS011;9271;48.590;8.866;2023-03-01T05:59:19;13.83;;;10.53;;
18290;SDS011;9271;48.590;8.866;2023-03-01T06:01:46;11.53;;;10.33;;
18290;SDS011;9271;48.590;8.866;2023-03-01T06:04:12;11.77;;;10.53;;
18290;SDS011;9271;48.590;8.866;2023-03-01T06:06:39;13.07;;;10.27;;
18290;SDS011;9271;48.590;8.866;2023-03-01T06:09:06;12.40;;;11.10;;
18290;SDS011;9271;48.590;8.866;2023-03-01T06:11:36;11.73;;;10.37;;
18290;SDS011;9271;48.590;8.866;2023-03-01T06:14:03;13.10;;;11.10;;
18290;SDS011;9271;48.590;8.866;2023-03-01T06:16:31;11.50;;;10.23;;
18290;SDS011;9271;48.590;8.866;2023-03-01T06:18:57;12.57;;;10.63;;
18290;SDS011;9271;48.590;8.866;2023-03-01T06:21:24;12.70;;;10.63;;
18290;SDS011;9271;48.590;8.866;2023-03-01T06:23:51;12.47;;;10.93;;
18290;SDS011;9271;48.590;8.866;2023-03-01T06:26:17;12.23;;;10.43;;
18290;SDS011;9271;48.590;8.866;2023-03-01T06:28:46;15.17;;;11.53;;
18290;SDS011;9271;48.590;8.866;2023-03-01T06:31:12;12.13;;;10.20;;
18290;SDS011;9271;48.590;8.866;2023-03-01T06:33:39;14.73;;;11.47;;
18290;SDS011;9271;48.590;8.866;2023-03-01T06:36:06;12.37;;;11.03;;
18290;SDS011;9271;48.590;8.866;2023-03-01T06:38:34;13.53;;;11.43;;
18290;SDS011;9271;48.590;8.866;2023-03-01T06:41:01;12.53;;;10.73;;
18290;SDS011;9271;48.590;8.866;2023-03-01T06:43:28;11.83;;;10.63;;
18290;SDS011;9271;48.590;8.866;2023-03-01T06:45:56;14.40;;;11.33;;
18290;SDS011;9271;48.590;8.866;2023-03-01T06:48:23;11.33;;;10.13;;
18290;SDS011;9271;48.590;8.866;2023-03-01T06:50:49;12.63;;;10.57;;
18290;SDS011;9271;48.590;8.866;2023-03-01T06:53:16;14.97;;;11.40;;
18290;SDS011;9271;48.590;8.866;2023-03-01T06:55:42;13.83;;;11.20;;
18290;SDS011;9271;48.590;8.866;2023-03-01T06:58:09;12.40;;;10.50;;
18290;SDS011;9271;48.590;8.866;2023-03-01T07:00:36;11.70;;;10.43;;
18290;SDS011;9271;48.590;8.866;2023-03-01T07:03:07;13.00;;;10.50;;
18290;SDS011;9271;48.590;8.866;2023-03-01T07:05:34;12.97;;;11.37;;
18290;SDS011;9271;48.590;8.866;2023-03-01T07:08:01;14.20;;;11.10;;
18290;SDS011;9271;48.590;8.866;2023-03-01T07:10:27;14.50;;;10.70;;
18290;SDS011;9271;48.590;8.866;2023-03-01T07:12:55;12.30;;;10.20;;
18290;SDS011;9271;48.590;8.866;2023-03-01T07:15:22;13.43;;;10.73;;
18290;SDS011;9271;48.590;8.866;2023-03-01T07:17:48;12.80;;;10.70;;
18290;SDS011;9271;48.590;8.866;2023-03-01T07:20:17;13.23;;;11.53;;
18290;SDS011;9271;48.590;8.866;2023-03-01T07:22:46;13.23;;;10.83;;
18290;SDS011;9271;48.590;8.866;2023-03-01T07:25:13;13.50;;;10.50;;
18290;SDS011;9271;48.590;8.866;2023-03-01T07:27:39;12.37;;;11.07;;
18290;SDS011;9271;48.590;8.866;2023-03-01T07:30:07;13.17;;;11.50;;
18290;SDS011;9271;48.590;8.866;2023-03-01T07:32:34;14.50;;;11.60;;
18290;SDS011;9271;48.590;8.866;2023-03-01T07:35:01;12.70;;;11.27;;
18290;SDS011;9271;48.590;8.866;2023-03-01T07:37:29;13.67;;;12.37;;
18290;SDS011;9271;48.590;8.866;2023-03-01T07:39:55;12.97;;;11.57;;
18290;SDS011;9271;48.590;8.866;2023-03-01T07:42:22;13.93;;;11.20;;
18290;SDS011;9271;48.590;8.866;2023-03-01T07:44:49;12.80;;;11.50;;
18290;SDS011;9271;48.590;8.866;2023-03-01T07:47:15;14.07;;;12.17;;
18290;SDS011;9271;48.590;8.866;2023-03-01T07:49:42;13.23;;;11.37;;
18290;SDS011;9271;48.590;8.866;2023-03-01T07:52:09;12.90;;;11.47;;
18290;SDS011;9271;48.590;8.866;2023-03-01T07:54:38;13.17;;;11.63;;
18290;SDS011;9271;48.590;8.866;2023-03-01T07:57:05;18.00;;;12.70;;
18290;SDS011;9271;48.590;8.866;2023-03-01T07:59:31;13.23;;;11.83;;
18290;SDS011;9271;48.590;8.866;2023-03-01T08:01:58;16.20;;;12.37;;
18290;SDS011;9271;48.590;8.866;2023-03-01T08:04:25;14.47;;;12.50;;
18290;SDS011;9271;48.590;8.866;2023-03-01T08:06:51;14.37;;;12.13;;
18290;SDS011;9271;48.590;8.866;2023-03-01T08:09:18;15.57;;;12.50;;
18290;SDS011;9271;48.590;8.866;2023-03-01T08:11:46;14.33;;;12.83;;
18290;SDS011;9271;48.590;8.866;2023-03-01T08:14:13;15.40;;;12.53;;
18290;SDS011;9271;48.590;8.866;2023-03-01T08:16:39;13.60;;;12.23;;
18290;SDS011;9271;48.590;8.866;2023-03-01T08:19:06;15.17;;;12.17;;
18290;SDS011;9271;48.590;8.866;2023-03-01T08:21:33;13.50;;;12.00;;
18290;SDS011;9271;48.590;8.866;2023-03-01T08:24:00;17.07;;;13.13;;
18290;SDS011;9271;48.590;8.866;2023-03-01T08:26:27;16.47;;;12.63;;
18290;SDS011;9271;48.590;8.866;2023-03-01T08:28:55;15.10;;;12.67;;
18290;SDS011;9271;48.590;8.866;2023-03-01T08:31:24;13.77;;;12.47;;
18290;SDS011;9271;48.590;8.866;2023-03-01T08:33:52;14.73;;;12.93;;
18290;SDS011;9271;48.590;8.866;2023-03-01T08:36:21;14.00;;;12.70;;
18290;SDS011;9271;48.590;8.866;2023-03-01T08:38:48;13.83;;;12.53;;
18290;SDS011;9271;48.590;8.866;2023-03-01T08:41:15;15.10;;;13.13;;
18290;SDS011;9271;48.590;8.866;2023-03-01T08:43:42;14.90;;;13.40;;
18290;SDS011;9271;48.590;8.866;2023-03-01T08:46:10;14.60;;;13.20;;
18290;SDS011;9271;48.590;8.866;2023-03-01T08:48:38;14.90;;;13.40;;
18290;SDS011;9271;48.590;8.866;2023-03-01T08:51:09;14.50;;;13.07;;
18290;SDS011;9271;48.590;8.866;2023-03-01T08:53:37;14.73;;;13.23;;
18290;SDS011;9271;48.590;8.866;2023-03-01T08:56:04;15.70;;;14.07;;
18290;SDS011;9271;48.590;8.866;2023-03-01T08:58:31;14.40;;;13.00;;
18290;SDS011;9271;48.590;8.866;2023-03-01T09:00:58;14.37;;;12.90;;
18290;SDS011;9271;48.590;8.866;2023-03-01T09:03:26;15.40;;;13.80;;
18290;SDS011;9271;48.590;8.866;2023-03-01T09:05:53;16.00;;;13.57;;
18290;SDS011;9271;48.590;8.866;2023-03-01T09:08:26;15.80;;;14.20;;
18290;SDS011;9271;48.590;8.866;2023-03-01T09:10:53;14.90;;;13.30;;
18290;SDS011;9271;48.590;8.866;2023-03-01T09:13:20;14.53;;;12.93;;
18290;SDS011;9271;48.590;8.866;2023-03-01T09:15:48;14.33;;;12.87;;
18290;SDS011;9271;48.590;8.866;2023-03-01T09:18:15;14.73;;;13.23;;
18290;SDS011;9271;48.590;8.866;2023-03-01T09:20:43;14.90;;;13.30;;
18290;SDS011;9271;48.590;8.866;2023-03-01T09:23:10;17.47;;;15.43;;
18290;SDS011;9271;48.590;8.866;2023-03-01T09:25:36;16.73;;;14.40;;
18290;SDS011;9271;48.590;8.866;2023-03-01T09:28:03;15.93;;;14.23;;
18290;SDS011;9271;48.590;8.866;2023-03-01T09:30:30;14.63;;;13.07;;
18290;SDS011;9271;48.590;8.866;2023-03-01T09:32:56;14.27;;;12.97;;
18290;SDS011;9271;48.590;8.866;2023-03-01T09:35:23;15.23;;;13.77;;
18290;SDS011;9271;48.590;8.866;2023-03-01T09:37:51;14.60;;;12.80;;
18290;SDS011;9271;48.590;8.866;2023-03-01T09:40:20;14.27;;;12.87;;
18290;SDS011;9271;48.590;8.866;2023-03-01T09:42:51;14.80;;;13.33;;
18290;SDS011;9271;48.590;8.866;2023-03-01T09:45:32;15.10;;;13.57;;
18290;SDS011;9271;48.590;8.866;2023-03-01T09:48:00;14.37;;;12.97;;
18290;SDS011;9271;48.590;8.866;2023-03-01T09:50:32;13.97;;;12.50;;
18290;SDS011;9271;48.590;8.866;2023-03-01T09:53:02;15.03;;;13.53;;
18290;SDS011;9271;48.590;8.866;2023-03-01T09:55:33;15.27;;;13.67;;
18290;SDS011;9271;48.590;8.866;2023-03-01T09:58:06;15.07;;;13.47;;
18290;SDS011;9271;48.590;8.866;2023-03-01T10:00:51;15.13;;;13.63;;
18290;SDS011;9271;48.590;8.866;2023-03-01T10:03:21;15.50;;;13.93;;
18290;SDS011;9271;48.590;8.866;2023-03-01T10:05:54;14.77;;;13.37;;
18290;SDS011;9271;48.590;8.866;2023-03-01T10:08:31;14.80;;;13.40;;
18290;SDS011;9271;48.590;8.866;2023-03-01T10:11:04;14.87;;;13.47;;
18290;SDS011;9271;48.590;8.866;2023-03-01T10:13:33;15.07;;;13.67;;
18290;SDS011;9271;48.590;8.866;2023-03-01T10:16:10;15.07;;;13.57;;
18290;SDS011;9271;48.590;8.866;2023-03-01T10:18:41;14.83;;;13.43;;
18290;SDS011;9271;48.590;8.866;2023-03-01T10:21:13;15.13;;;13.73;;
18290;SDS011;9271;48.590;8.866;2023-03-01T10:23:43;15.20;;;13.67;;
18290;SDS011;9271;48.590;8.866;2023-03-01T10:26:20;14.97;;;13.47;;
18290;SDS011;9271;48.590;8.866;2023-03-01T10:28:58;17.30;;;13.77;;
18290;SDS011;9271;48.590;8.866;2023-03-01T10:31:32;13.30;;;12.10;;
18290;SDS011;9271;48.590;8.866;2023-03-01T10:34:06;14.97;;;13.67;;
18290;SDS011;9271;48.590;8.866;2023-03-01T10:36:37;14.53;;;13.17;;
18290;SDS011;9271;48.590;8.866;2023-03-01T10:39:10;14.17;;;12.87;;
18290;SDS011;9271;48.590;8.866;2023-03-01T10:41:40;15.00;;;13.50;;
18290;SDS011;9271;48.590;8.866;2023-03-01T10:44:34;15.20;;;13.67;;
18290;SDS011;9271;48.590;8.866;2023-03-01T10:47:02;15.33;;;13.47;;
18290;SDS011;9271;48.590;8.866;2023-03-01T10:49:30;14.90;;;13.50;;
18290;SDS011;9271;48.590;8.866;2023-03-01T10:51:57;14.70;;;13.40;;
18290;SDS011;9271;48.590;8.866;2023-03-01T10:54:45;14.60;;;13.30;;
18290;SDS011;9271;48.590;8.866;2023-03-01T10:57:29;14.10;;;12.90;;
18290;SDS011;9271;48.590;8.866;2023-03-01T11:00:13;14.50;;;13.10;;
18290;SDS011;9271;48.590;8.866;2023-03-01T11:02:45;15.07;;;13.73;;
18290;SDS011;9271;48.590;8.866;2023-03-01T11:05:16;14.90;;;13.50;;
18290;SDS011;9271;48.590;8.866;2023-03-01T11:07:46;14.87;;;13.33;;
18290;SDS011;9271;48.590;8.866;2023-03-01T11:10:17;15.37;;;13.90;;
18290;SDS011;9271;48.590;8.866;2023-03-01T11:12:45;16.77;;;13.97;;
18290;SDS011;9271;48.590;8.866;2023-03-01T11:15:19;15.50;;;13.97;;
18290;SDS011;9271;48.590;8.866;2023-03-01T11:17:48;15.17;;;13.77;;
18290;SDS011;9271;48.590;8.866;2023-03-01T11:20:17;14.90;;;13.40;;
18290;SDS011;9271;48.590;8.866;2023-03-01T11:22:56;14.40;;;13.07;;
18290;SDS011;9271;48.590;8.866;2023-03-01T11:25:28;15.73;;;12.73;;
18290;SDS011;9271;48.590;8.866;2023-03-01T11:27:58;15.87;;;13.53;;
18290;SDS011;9271;48.590;8.866;2023-03-01T11:30:28;14.23;;;12.77;;
18290;SDS011;9271;48.590;8.866;2023-03-01T11:33:03;15.43;;;13.83;;
18290;SDS011;9271;48.590;8.866;2023-03-01T11:35:41;14.07;;;12.67;;
18290;SDS011;9271;48.590;8.866;2023-03-01T11:38:15;14.80;;;13.40;;
18290;SDS011;9271;48.590;8.866;2023-03-01T11:40:49;14.57;;;13.17;;
18290;SDS011;9271;48.590;8.866;2023-03-01T11:43:20;15.33;;;13.73;;
18290;SDS011;9271;48.590;8.866;2023-03-01T11:46:03;14.27;;;12.97;;
18290;SDS011;9271;48.590;8.866;2023-03-01T11:48:50;15.33;;;13.90;;
18290;SDS011;9271;48.590;8.866;2023-03-01T11:51:29;14.97;;;13.53;;
18290;SDS011;9271;48.590;8.866;2023-03-01T11:54:13;16.73;;;13.50;;
18290;SDS011;9271;48.590;8.866;2023-03-01T11:56:55;14.93;;;13.43;;
18290;SDS011;9271;48.590;8.866;2023-03-01T11:59:32;14.70;;;13.30;;
18290;SDS011;9271;48.590;8.866;2023-03-01T12:02:21;14.83;;;13.33;;
18290;SDS011;9271;48.590;8.866;2023-03-01T12:07:53;14.80;;;13.30;;
18290;SDS011;9271;48.590;8.866;2023-03-01T12:10:27;15.70;;;13.73;;
18290;SDS011;9271;48.590;8.866;2023-03-01T12:15:56;14.53;;;12.50;;
18290;SDS011;9271;48.590;8.866;2023-03-01T12:21:47;14.57;;;13.13;;
18290;SDS011;9271;48.590;8.866;2023-03-01T12:24:37;13.27;;;12.00;;
18290;SDS011;9271;48.590;8.866;2023-03-01T12:27:21;13.87;;;12.57;;
18290;SDS011;9271;48.590;8.866;2023-03-01T12:30:02;13.87;;;12.67;;
18290;SDS011;9271;48.590;8.866;2023-03-01T12:32:45;14.07;;;12.77;;
18290;SDS011;9271;48.590;8.866;2023-03-01T12:38:19;14.23;;;12.80;;
18290;SDS011;9271;48.590;8.866;2023-03-01T12:41:02;13.43;;;12.23;;
18290;SDS011;9271;48.590;8.866;2023-03-01T12:43:58;13.53;;;12.13;;
18290;SDS011;9271;48.590;8.866;2023-03-01T12:46:36;13.80;;;12.40;;
18290;SDS011;9271;48.590;8.866;2023-03-01T12:49:18;14.97;;;13.67;;
18290;SDS011;9271;48.590;8.866;2023-03-01T12:51:50;14.93;;;13.10;;
18290;SDS011;9271;48.590;8.866;2023-03-01T12:54:21;14.97;;;13.40;;
18290;SDS011;9271;48.590;8.866;2023-03-01T12:56:54;15.80;;;14.30;;
18290;SDS011;9271;48.590;8.866;2023-03-01T12:59:24;15.40;;;13.93;;
18290;SDS011;9271;48.590;8.866;2023-03-01T13:02:02;15.87;;;13.07;;
18290;SDS011;9271;48.590;8.866;2023-03-01T13:04:40;15.00;;;13.60;;
18290;SDS011;9271;48.590;8.866;2023-03-01T13:07:23;14.90;;;13.57;;
18290;SDS011;9271;48.590;8.866;2023-03-01T13:09:55;15.03;;;13.53;;
18290;SDS011;9271;48.590;8.866;2023-03-01T13:12:42;14.17;;;12.93;;
18290;SDS011;9271;48.590;8.866;2023-03-01T13:15:25;14.33;;;12.83;;
18290;SDS011;9271;48.590;8.866;2023-03-01T13:17:59;14.43;;;13.13;;
18290;SDS011;9271;48.590;8.866;2023-03-01T13:20:29;15.70;;;14.10;;
18290;SDS011;9271;48.590;8.866;2023-03-01T13:23:06;15.80;;;14.03;;
18290;SDS011;9271;48.590;8.866;2023-03-01T13:25:38;14.30;;;12.90;;
18290;SDS011;9271;48.590;8.866;2023-03-01T13:28:35;14.00;;;12.70;;
18290;SDS011;9271;48.590;8.866;2023-03-01T13:37:20;14.40;;;13.00;;
18290;SDS011;9271;48.590;8.866;2023-03-01T13:39:55;14.07;;;12.50;;
18290;SDS011;9271;48.590;8.866;2023-03-01T13:45:15;13.63;;;12.33;;
18290;SDS011;9271;48.590;8.866;2023-03-01T13:47:45;14.10;;;12.70;;
18290;SDS011;9271;48.590;8.866;2023-03-01T13:50:18;14.87;;;13.23;;
18290;SDS011;9271;48.590;8.866;2023-03-01T13:52:48;13.83;;;12.50;;
18290;SDS011;9271;48.590;8.866;2023-03-01T13:55:20;13.87;;;12.47;;
18290;SDS011;9271;48.590;8.866;2023-03-01T13:57:53;13.93;;;11.87;;
18290;SDS011;9271;48.590;8.866;2023-03-01T14:00:26;12.77;;;11.57;;
18290;SDS011;9271;48.590;8.866;2023-03-01T14:03:05;13.33;;;12.03;;
18290;SDS011;9271;48.590;8.866;2023-03-01T14:05:37;12.93;;;11.70;;
18290;SDS011;9271;48.590;8.866;2023-03-01T14:08:17;14.70;;;12.20;;
18290;SDS011;9271;48.590;8.866;2023-03-01T14:10:49;12.73;;;11.43;;
18290;SDS011;9271;48.590;8.866;2023-03-01T14:13:35;12.50;;;11.30;;
18290;SDS011;9271;48.590;8.866;2023-03-01T14:16:18;12.47;;;11.23;;
18290;SDS011;9271;48.590;8.866;2023-03-01T14:18:55;13.53;;;11.33;;
18290;SDS011;9271;48.590;8.866;2023-03-01T14:21:29;12.50;;;11.30;;
18290;SDS011;9271;48.590;8.866;2023-03-01T14:23:56;13.47;;;12.07;;
18290;SDS011;9271;48.590;8.866;2023-03-01T14:26:24;12.20;;;11.10;;
18290;SDS011;9271;48.590;8.866;2023-03-01T14:28:52;13.37;;;12.00;;
18290;SDS011;9271;48.590;8.866;2023-03-01T14:31:34;13.57;;;11.57;;
18290;SDS011;9271;48.590;8.866;2023-03-01T14:34:02;12.73;;;11.30;;
18290;SDS011;9271;48.590;8.866;2023-03-01T14:36:30;13.70;;;11.47;;
18290;SDS011;9271;48.590;8.866;2023-03-01T14:38:57;12.53;;;11.17;;
18290;SDS011;9271;48.590;8.866;2023-03-01T14:41:29;13.40;;;11.60;;
18290;SDS011;9271;48.590;8.866;2023-03-01T14:44:01;12.37;;;11.07;;
18290;SDS011;9271;48.590;8.866;2023-03-01T14:46:33;14.53;;;11.90;;
18290;SDS011;9271;48.590;8.866;2023-03-01T14:49:02;15.37;;;13.93;;
18290;SDS011;9271;48.590;8.866;2023-03-01T14:51:34;15.40;;;13.77;;
18290;SDS011;9271;48.590;8.866;2023-03-01T14:54:02;15.93;;;14.20;;
18290;SDS011;9271;48.590;8.866;2023-03-01T14:56:37;15.93;;;14.43;;
18290;SDS011;9271;48.590;8.866;2023-03-01T14:59:11;15.83;;;14.23;;
18290;SDS011;9271;48.590;8.866;2023-03-01T15:01:39;13.30;;;11.97;;
18290;SDS011;9271;48.590;8.866;2023-03-01T15:04:06;14.70;;;13.20;;
18290;SDS011;9271;48.590;8.866;2023-03-01T15:06:38;16.27;;;12.90;;
18290;SDS011;9271;48.590;8.866;2023-03-01T15:09:05;18.00;;;14.50;;
18290;SDS011;9271;48.590;8.866;2023-03-01T15:11:33;16.03;;;14.33;;
18290;SDS011;9271;48.590;8.866;2023-03-01T15:14:01;16.13;;;13.87;;
18290;SDS011;9271;48.590;8.866;2023-03-01T15:16:54;14.90;;;13.27;;